createdAt,value
2022-12-31T00:02:03.495Z,98866.25
2022-12-31T00:07:06.129Z,98868.84
2022-12-31T00:12:08.692Z,98873.09
2022-12-31T00:17:11.251Z,98870.50
2022-12-31T00:22:13.826Z,98851.75
2022-12-31T00:27:16.861Z,98860.31
2022-12-31T00:32:19.449Z,98856.88
2022-12-31T00:37:22.008Z,98863.66
2022-12-31T00:42:24.738Z,98854.22
2022-12-31T00:47:27.399Z,98852.44
2022-12-31T00:52:29.995Z,98858.41
2022-12-31T00:57:32.545Z,98854.16
2022-12-31T01:02:35.310Z,98850.78
2022-12-31T01:07:38.830Z,98845.66
2022-12-31T01:12:41.565Z,98861.84
2022-12-31T01:17:44.357Z,98857.53
2022-12-31T01:22:46.948Z,98856.72
2022-12-31T01:27:49.623Z,98860.97
2022-12-31T01:32:52.246Z,98862.66
2022-12-31T01:37:54.860Z,98860.97
2022-12-31T01:42:58.510Z,98859.28
2022-12-31T01:48:01.987Z,98861.00
2022-12-31T01:53:07.117Z,98860.16
2022-12-31T01:58:14.474Z,98861.84
2022-12-31T02:03:17.315Z,98858.44
2022-12-31T02:08:21.308Z,98844.78
2022-12-31T02:13:24.205Z,98849.06
2022-12-31T02:18:35.806Z,98858.44
2022-12-31T02:23:55.872Z,98859.31
2022-12-31T02:29:27.816Z,98860.09
2022-12-31T02:34:38.038Z,98864.91
2022-12-31T02:39:42.955Z,98861.28
2022-12-31T02:44:45.534Z,98867.38
2022-12-31T02:50:16.604Z,98867.34
2022-12-31T02:55:52.525Z,98860.19
2022-12-31T03:01:16.663Z,98874.66
2022-12-31T03:06:19.457Z,98874.59
2022-12-31T03:11:40.517Z,98869.38
2022-12-31T03:16:43.038Z,98883.00
2022-12-31T03:22:04.062Z,98888.91
2022-12-31T03:27:06.701Z,98886.28
2022-12-31T03:32:09.197Z,98882.91
2022-12-31T03:37:11.788Z,98896.63
2022-12-31T03:42:14.382Z,98905.06
2022-12-31T03:47:17.003Z,98898.28
2022-12-31T03:52:19.766Z,98900.94
2022-12-31T03:57:23.799Z,98905.34
2022-12-31T04:02:28.835Z,98901.09
2022-12-31T04:07:32.202Z,98914.66
2022-12-31T04:12:35.124Z,98915.56
2022-12-31T04:17:37.704Z,98905.81
2022-12-31T04:22:40.392Z,98936.69
2022-12-31T04:27:45.910Z,98946.28
2022-12-31T04:32:48.419Z,98949.63
2022-12-31T04:37:51.043Z,98933.44
2022-12-31T04:42:53.574Z,98955.53
2022-12-31T04:47:56.177Z,98973.34
2022-12-31T04:52:58.677Z,98981.06
2022-12-31T04:58:01.892Z,98994.50
2022-12-31T05:03:04.523Z,98997.84
2022-12-31T05:08:07.136Z,99007.16
2022-12-31T05:13:09.849Z,99020.78
2022-12-31T05:18:12.519Z,99026.44
2022-12-31T05:23:16.725Z,99028.06
2022-12-31T05:28:19.910Z,99049.31
2022-12-31T05:33:23.167Z,99019.84
2022-12-31T05:38:26.273Z,99057.50
2022-12-31T05:43:29.041Z,99073.53
2022-12-31T05:48:32.079Z,99068.41
2022-12-31T05:53:34.739Z,99094.84
2022-12-31T05:58:38.088Z,99100.66
2022-12-31T06:03:42.193Z,99101.56
2022-12-31T06:08:44.911Z,99109.22
2022-12-31T06:13:47.435Z,99118.69
2022-12-31T06:18:51.011Z,99132.28
2022-12-31T06:23:53.574Z,99144.25
2022-12-31T06:28:56.168Z,99152.00
2022-12-31T06:33:59.184Z,99182.63
2022-12-31T06:39:02.044Z,99181.78
2022-12-31T06:44:04.764Z,99202.34
2022-12-31T06:49:07.391Z,99210.03
2022-12-31T06:54:10.022Z,99216.84
2022-12-31T06:59:26.754Z,99221.16
2022-12-31T07:04:56.274Z,99208.44
2022-12-31T07:10:17.614Z,99217.94
2022-12-31T07:15:43.704Z,99224.75
2022-12-31T07:20:46.778Z,99234.91
2022-12-31T07:26:05.054Z,99188.56
2022-12-31T07:31:25.265Z,99209.16
2022-12-31T07:36:33.499Z,99246.09
2022-12-31T07:42:00.101Z,99258.13
2022-12-31T07:47:05.587Z,99232.56
2022-12-31T07:52:08.549Z,99271.25
2022-12-31T07:57:15.988Z,99278.22
2022-12-31T08:02:25.383Z,99286.97
2022-12-31T08:07:52.111Z,99289.41
2022-12-31T08:13:01.218Z,99254.63
2022-12-31T08:18:04.153Z,99285.47
2022-12-31T08:23:22.081Z,99293.25
2022-12-31T08:28:38.105Z,99301.13
2022-12-31T08:34:07.525Z,99297.63
2022-12-31T08:39:16.099Z,99292.91
2022-12-31T08:44:44.502Z,99285.84
2022-12-31T08:49:47.278Z,99279.41
2022-12-31T08:54:50.473Z,99281.97
2022-12-31T09:00:13.961Z,99310.91
2022-12-31T09:05:23.583Z,99327.91
2022-12-31T09:10:35.097Z,99321.16
2022-12-31T09:16:02.036Z,99327.50
2022-12-31T09:21:04.892Z,99302.25
2022-12-31T09:26:36.733Z,99334.69
2022-12-31T09:32:05.278Z,99350.84
2022-12-31T09:37:41.331Z,99350.75
2022-12-31T09:43:18.187Z,99349.78
2022-12-31T09:48:54.768Z,99374.78
2022-12-31T09:54:17.447Z,99391.72
2022-12-31T09:59:35.314Z,99394.97
2022-12-31T10:05:20.492Z,99403.69
2022-12-31T10:10:30.141Z,99394.41
2022-12-31T10:15:53.934Z,99382.91
2022-12-31T10:21:26.520Z,99391.41
2022-12-31T10:26:58.649Z,99380.34
2022-12-31T10:32:03.932Z,99391.59
2022-12-31T10:37:15.723Z,99390.06
2022-12-31T10:42:36.702Z,99396.97
2022-12-31T10:48:07.339Z,99382.53
2022-12-31T10:53:25.071Z,99425.25
2022-12-31T10:58:42.845Z,99424.69
2022-12-31T11:04:07.359Z,99434.94
2022-12-31T11:09:23.492Z,99444.53
2022-12-31T11:14:41.331Z,99458.75
2022-12-31T11:20:14.781Z,99454.53
2022-12-31T11:25:33.563Z,99459.75
2022-12-31T11:30:38.888Z,99484.63
2022-12-31T11:35:50.629Z,99497.13
2022-12-31T11:41:11.411Z,99499.56
2022-12-31T11:46:25.010Z,99496.09
2022-12-31T11:51:40.682Z,99495.03
2022-12-31T11:56:53.874Z,99499.31
2022-12-31T12:02:04.552Z,99498.22
2022-12-31T12:07:14.700Z,99506.75
2022-12-31T12:12:17.352Z,99519.59
2022-12-31T12:17:32.542Z,99525.59
2022-12-31T12:22:35.260Z,99529.09
2022-12-31T12:27:37.956Z,99486.78
2022-12-31T12:32:59.318Z,99513.44
2022-12-31T12:38:08.429Z,99536.66
2022-12-31T12:43:33.741Z,99519.59
2022-12-31T12:48:42.092Z,99525.50
2022-12-31T12:53:57.562Z,99516.91
2022-12-31T12:59:09.229Z,99520.38
2022-12-31T13:04:34.995Z,99519.00
2022-12-31T13:09:55.575Z,99515.44
2022-12-31T13:14:58.061Z,99522.63
2022-12-31T13:20:21.583Z,99523.56
2022-12-31T13:26:14.533Z,99517.69
2022-12-31T13:31:30.341Z,99514.28
2022-12-31T13:36:39.720Z,99509.06
2022-12-31T13:41:49.733Z,99529.50
2022-12-31T13:46:54.062Z,99539.59
2022-12-31T13:52:14.650Z,99509.22
2022-12-31T13:57:30.689Z,99522.25
2022-12-31T14:02:55.849Z,99513.75
2022-12-31T14:08:01.821Z,99516.38
2022-12-31T14:13:21.522Z,99511.16
2022-12-31T14:18:33.480Z,99501.63
2022-12-31T14:23:54.769Z,99523.66
2022-12-31T14:29:06.071Z,99522.19
2022-12-31T14:34:37.134Z,99488.03
2022-12-31T14:40:10.560Z,99521.56
2022-12-31T14:45:35.764Z,99534.09
2022-12-31T14:50:38.825Z,99504.19
2022-12-31T14:55:41.658Z,99523.97
2022-12-31T15:00:56.962Z,99533.63
2022-12-31T15:06:22.654Z,99542.56
2022-12-31T15:11:43.434Z,99532.16
2022-12-31T15:17:04.069Z,99538.75
2022-12-31T15:22:18.006Z,99529.84
2022-12-31T15:27:42.356Z,99529.41
2022-12-31T15:32:47.322Z,99518.75
2022-12-31T15:38:03.247Z,99510.63
2022-12-31T15:43:15.063Z,99507.00
2022-12-31T15:48:27.439Z,99524.31
2022-12-31T15:53:36.233Z,99520.19
2022-12-31T15:58:38.925Z,99500.03
2022-12-31T16:03:51.102Z,99501.75
2022-12-31T16:08:55.616Z,99514.47
2022-12-31T16:14:00.189Z,99521.22
2022-12-31T16:19:02.767Z,99526.31
2022-12-31T16:24:23.563Z,99508.25
2022-12-31T16:29:26.315Z,99501.06
2022-12-31T16:34:32.316Z,99495.56
2022-12-31T16:39:48.713Z,99502.94
2022-12-31T16:44:53.909Z,99501.28
2022-12-31T16:50:04.144Z,99494.88
2022-12-31T16:55:30.695Z,99491.59
2022-12-31T17:00:33.915Z,99478.78
2022-12-31T17:06:14.060Z,99480.31
2022-12-31T17:11:31.064Z,99477.31
2022-12-31T17:16:36.057Z,99467.06
2022-12-31T17:21:48.627Z,99461.94
2022-12-31T17:26:52.694Z,99439.34
2022-12-31T17:32:07.282Z,99439.44
2022-12-31T17:37:15.917Z,99429.91
2022-12-31T17:42:28.736Z,99436.44
2022-12-31T17:47:40.523Z,99436.41
2022-12-31T17:52:43.175Z,99429.28
2022-12-31T17:57:54.241Z,99412.09
2022-12-31T18:02:56.923Z,99378.97
2022-12-31T18:07:59.560Z,99399.72
2022-12-31T18:13:05.082Z,99415.94
2022-12-31T18:18:35.892Z,99398.84
2022-12-31T18:23:43.259Z,99395.81
2022-12-31T18:28:46.755Z,99397.59
2022-12-31T18:33:51.392Z,99397.59
2022-12-31T18:38:54.285Z,99393.97
2022-12-31T18:43:56.912Z,99376.13
2022-12-31T18:48:59.581Z,99363.06
2022-12-31T18:54:03.743Z,99336.78
2022-12-31T18:59:07.809Z,99343.84
2022-12-31T19:04:26.517Z,99353.59
2022-12-31T19:09:50.085Z,99336.63
2022-12-31T19:14:55.780Z,99331.41
2022-12-31T19:20:03.275Z,99323.59
2022-12-31T19:25:33.746Z,99307.03
2022-12-31T19:30:36.794Z,99321.59
2022-12-31T19:35:40.099Z,99316.31
2022-12-31T19:40:42.699Z,99295.13
2022-12-31T19:45:45.751Z,99329.69
2022-12-31T19:50:50.698Z,99323.94
2022-12-31T19:55:53.797Z,99298.22
2022-12-31T20:01:02.430Z,99314.88
2022-12-31T20:06:08.875Z,99294.75
2022-12-31T20:11:14.831Z,99290.72
2022-12-31T20:16:19.603Z,99312.94
2022-12-31T20:21:25.400Z,99281.84
2022-12-31T20:26:28.177Z,99270.81
2022-12-31T20:31:30.757Z,99263.91
2022-12-31T20:36:33.302Z,99219.53
2022-12-31T20:41:35.826Z,99177.63
2022-12-31T20:46:38.509Z,99194.78
2022-12-31T20:51:41.034Z,99216.78
2022-12-31T20:56:47.748Z,99201.53
2022-12-31T21:02:19.940Z,99198.03
2022-12-31T21:07:12.832Z,99202.22
2022-12-31T21:12:33.894Z,99200.53
2022-12-31T21:17:36.542Z,99201.50
2022-12-31T21:22:39.244Z,99198.94
2022-12-31T21:27:41.828Z,99196.53
2022-12-31T21:32:44.375Z,99203.22
2022-12-31T21:37:58.088Z,99188.69
2022-12-31T21:43:02.878Z,99176.66
2022-12-31T21:48:22.022Z,99160.34
2022-12-31T21:53:30.425Z,99166.47
2022-12-31T21:58:40.778Z,99176.59
2022-12-31T22:03:43.692Z,99133.19
2022-12-31T22:08:48.575Z,99111.13
2022-12-31T22:13:52.174Z,99120.47
2022-12-31T22:18:55.787Z,99122.13
2022-12-31T22:24:03.163Z,99133.25
2022-12-31T22:29:05.736Z,99128.00
2022-12-31T22:34:08.356Z,99115.47
2022-12-31T22:39:43.265Z,99079.75
2022-12-31T22:44:38.397Z,99072.81
2022-12-31T22:49:40.919Z,99080.63
2022-12-31T22:54:43.650Z,99076.50
2022-12-31T22:59:46.224Z,99080.56
2022-12-31T23:04:49.970Z,99074.75
2022-12-31T23:10:11.342Z,99053.59
2022-12-31T23:15:33.714Z,99051.22
2022-12-31T23:20:55.170Z,99039.19
2022-12-31T23:26:01.376Z,99049.31
2022-12-31T23:31:06.520Z,99031.44
2022-12-31T23:36:09.527Z,99043.34
2022-12-31T23:41:18.305Z,99025.41
2022-12-31T23:46:20.968Z,99012.50
2022-12-31T23:51:24.429Z,98950.69
2022-12-31T23:56:27.063Z,99033.78
